sensor_id;sensor_type;location;lat;lon;timestamp;P1;durP1;ratioP1;P2;durP2;ratioP2
40304;SDS011;26010;52.418;20.728;2022-07-23T00:06:38;93.53;;;88.13;;
40304;SDS011;26010;52.418;20.728;2022-07-23T00:16:39;111.63;;;105.13;;
40304;SDS011;26010;52.418;20.728;2022-07-23T00:26:40;117.43;;;110.67;;
40304;SDS011;26010;52.418;20.728;2022-07-23T00:36:40;107.37;;;101.10;;
40304;SDS011;26010;52.418;20.728;2022-07-23T00:46:45;83.75;;;78.63;;
40304;SDS011;26010;52.418;20.728;2022-07-23T00:56:46;185.83;;;175.47;;
40304;SDS011;26010;52.418;20.728;2022-07-23T01:06:47;205.47;;;193.77;;
40304;SDS011;26010;52.418;20.728;2022-07-23T01:16:48;167.27;;;158.13;;
40304;SDS011;26010;52.418;20.728;2022-07-23T01:26:50;173.23;;;163.50;;
40304;SDS011;26010;52.418;20.728;2022-07-23T01:36:51;126.73;;;119.03;;
40304;SDS011;26010;52.418;20.728;2022-07-23T01:46:52;103.95;;;97.32;;
40304;SDS011;26010;52.418;20.728;2022-07-23T01:56:53;86.53;;;81.00;;
40304;SDS011;26010;52.418;20.728;2022-07-23T02:06:54;72.90;;;68.47;;
40304;SDS011;26010;52.418;20.728;2022-07-23T02:16:54;86.30;;;80.93;;
40304;SDS011;26010;52.418;20.728;2022-07-23T02:26:55;107.77;;;101.27;;
40304;SDS011;26010;52.418;20.728;2022-07-23T02:36:56;106.67;;;99.70;;
40304;SDS011;26010;52.418;20.728;2022-07-23T02:46:57;193.30;;;181.60;;
40304;SDS011;26010;52.418;20.728;2022-07-23T02:56:57;113.67;;;106.40;;
40304;SDS011;26010;52.418;20.728;2022-07-23T03:06:58;148.13;;;139.23;;
40304;SDS011;26010;52.418;20.728;2022-07-23T03:16:59;157.07;;;148.17;;
40304;SDS011;26010;52.418;20.728;2022-07-23T03:27:00;153.00;;;143.70;;
40304;SDS011;26010;52.418;20.728;2022-07-23T03:37:01;127.77;;;119.80;;
40304;SDS011;26010;52.418;20.728;2022-07-23T03:47:03;108.80;;;101.70;;
40304;SDS011;26010;52.418;20.728;2022-07-23T03:57:04;97.45;;;91.22;;
40304;SDS011;26010;52.418;20.728;2022-07-23T04:07:04;112.10;;;105.20;;
40304;SDS011;26010;52.418;20.728;2022-07-23T04:17:07;109.20;;;102.33;;
40304;SDS011;26010;52.418;20.728;2022-07-23T04:27:07;63.57;;;59.27;;
40304;SDS011;26010;52.418;20.728;2022-07-23T04:37:08;54.83;;;50.67;;
40304;SDS011;26010;52.418;20.728;2022-07-23T04:47:09;54.97;;;50.73;;
40304;SDS011;26010;52.418;20.728;2022-07-23T04:57:11;60.23;;;56.00;;
40304;SDS011;26010;52.418;20.728;2022-07-23T05:07:11;55.00;;;50.63;;
40304;SDS011;26010;52.418;20.728;2022-07-23T05:17:12;57.00;;;53.00;;
40304;SDS011;26010;52.418;20.728;2022-07-23T05:27:13;71.83;;;66.57;;
40304;SDS011;26010;52.418;20.728;2022-07-23T05:37:14;75.90;;;70.70;;
40304;SDS011;26010;52.418;20.728;2022-07-23T05:47:15;86.40;;;80.97;;
40304;SDS011;26010;52.418;20.728;2022-07-23T05:57:16;93.97;;;87.88;;
40304;SDS011;26010;52.418;20.728;2022-07-23T06:07:17;94.07;;;88.15;;
40304;SDS011;26010;52.418;20.728;2022-07-23T06:17:18;61.28;;;57.17;;
40304;SDS011;26010;52.418;20.728;2022-07-23T06:37:19;48.42;;;45.10;;
40304;SDS011;26010;52.418;20.728;2022-07-23T06:47:20;43.90;;;40.90;;
40304;SDS011;26010;52.418;20.728;2022-07-23T06:57:21;36.27;;;33.63;;
40304;SDS011;26010;52.418;20.728;2022-07-23T07:07:21;33.33;;;30.57;;
40304;SDS011;26010;52.418;20.728;2022-07-23T07:17:22;23.40;;;21.60;;
40304;SDS011;26010;52.418;20.728;2022-07-23T07:27:23;19.37;;;17.67;;
40304;SDS011;26010;52.418;20.728;2022-07-23T07:37:24;18.10;;;16.35;;
40304;SDS011;26010;52.418;20.728;2022-07-23T07:47:25;18.27;;;16.60;;
40304;SDS011;26010;52.418;20.728;2022-07-23T07:57:25;18.40;;;16.58;;
40304;SDS011;26010;52.418;20.728;2022-07-23T08:07:26;17.58;;;15.98;;
40304;SDS011;26010;52.418;20.728;2022-07-23T08:17:27;17.25;;;15.85;;
40304;SDS011;26010;52.418;20.728;2022-07-23T08:27:27;14.68;;;13.48;;
40304;SDS011;26010;52.418;20.728;2022-07-23T08:37:28;14.27;;;13.18;;
40304;SDS011;26010;52.418;20.728;2022-07-23T08:47:29;15.10;;;13.57;;
40304;SDS011;26010;52.418;20.728;2022-07-23T08:57:30;12.93;;;11.73;;
40304;SDS011;26010;52.418;20.728;2022-07-23T09:07:31;13.95;;;12.75;;
40304;SDS011;26010;52.418;20.728;2022-07-23T09:17:41;14.43;;;13.13;;
40304;SDS011;26010;52.418;20.728;2022-07-23T09:27:55;14.15;;;12.70;;
40304;SDS011;26010;52.418;20.728;2022-07-23T09:38:02;14.80;;;13.18;;
40304;SDS011;26010;52.418;20.728;2022-07-23T09:48:10;16.23;;;14.90;;
40304;SDS011;26010;52.418;20.728;2022-07-23T09:58:11;19.17;;;17.77;;
40304;SDS011;26010;52.418;20.728;2022-07-23T10:08:14;23.73;;;22.13;;
40304;SDS011;26010;52.418;20.728;2022-07-23T10:18:16;12.75;;;11.75;;
40304;SDS011;26010;52.418;20.728;2022-07-23T10:38:27;11.38;;;10.10;;
40304;SDS011;26010;52.418;20.728;2022-07-23T10:48:30;8.70;;;8.00;;
40304;SDS011;26010;52.418;20.728;2022-07-23T10:58:47;9.30;;;7.80;;
40304;SDS011;26010;52.418;20.728;2022-07-23T11:08:49;9.95;;;7.28;;
40304;SDS011;26010;52.418;20.728;2022-07-23T11:18:58;7.18;;;6.50;;
40304;SDS011;26010;52.418;20.728;2022-07-23T11:39:50;7.65;;;7.00;;
40304;SDS011;26010;52.418;20.728;2022-07-23T11:49:58;10.27;;;9.48;;
40304;SDS011;26010;52.418;20.728;2022-07-23T12:10:19;10.85;;;9.63;;
40304;SDS011;26010;52.418;20.728;2022-07-23T12:20:27;11.50;;;10.50;;
40304;SDS011;26010;52.418;20.728;2022-07-23T12:40:40;13.57;;;12.57;;
40304;SDS011;26010;52.418;20.728;2022-07-23T12:50:42;14.85;;;13.10;;
40304;SDS011;26010;52.418;20.728;2022-07-23T13:00:57;15.48;;;14.05;;
40304;SDS011;26010;52.418;20.728;2022-07-23T13:10:58;18.40;;;16.90;;
40304;SDS011;26010;52.418;20.728;2022-07-23T13:21:00;20.00;;;18.20;;
40304;SDS011;26010;52.418;20.728;2022-07-23T13:31:01;10.23;;;8.25;;
40304;SDS011;26010;52.418;20.728;2022-07-23T13:41:02;8.70;;;7.88;;
40304;SDS011;26010;52.418;20.728;2022-07-23T13:51:06;8.43;;;7.38;;
40304;SDS011;26010;52.418;20.728;2022-07-23T14:01:07;10.68;;;8.50;;
40304;SDS011;26010;52.418;20.728;2022-07-23T14:11:08;12.77;;;11.68;;
40304;SDS011;26010;52.418;20.728;2022-07-23T14:21:09;13.85;;;12.77;;
40304;SDS011;26010;52.418;20.728;2022-07-23T14:31:10;22.30;;;20.77;;
40304;SDS011;26010;52.418;20.728;2022-07-23T14:41:13;20.70;;;18.60;;
40304;SDS011;26010;52.418;20.728;2022-07-23T14:51:15;41.70;;;38.53;;
40304;SDS011;26010;52.418;20.728;2022-07-23T15:01:16;149.90;;;141.30;;
40304;SDS011;26010;52.418;20.728;2022-07-23T15:11:18;150.90;;;142.23;;
40304;SDS011;26010;52.418;20.728;2022-07-23T15:21:19;94.37;;;88.77;;
40304;SDS011;26010;52.418;20.728;2022-07-23T15:31:21;69.60;;;65.20;;
40304;SDS011;26010;52.418;20.728;2022-07-23T15:41:23;65.55;;;61.17;;
40304;SDS011;26010;52.418;20.728;2022-07-23T15:51:25;75.15;;;70.40;;
40304;SDS011;26010;52.418;20.728;2022-07-23T16:01:25;67.63;;;63.43;;
40304;SDS011;26010;52.418;20.728;2022-07-23T16:11:29;64.23;;;59.50;;
40304;SDS011;26010;52.418;20.728;2022-07-23T16:21:30;65.67;;;61.47;;
40304;SDS011;26010;52.418;20.728;2022-07-23T16:31:31;58.27;;;54.37;;
40304;SDS011;26010;52.418;20.728;2022-07-23T16:41:32;64.97;;;60.83;;
40304;SDS011;26010;52.418;20.728;2022-07-23T16:51:33;40.77;;;37.83;;
40304;SDS011;26010;52.418;20.728;2022-07-23T17:01:33;43.33;;;40.47;;
40304;SDS011;26010;52.418;20.728;2022-07-23T17:11:34;54.83;;;51.30;;
40304;SDS011;26010;52.418;20.728;2022-07-23T17:21:35;47.07;;;43.87;;
40304;SDS011;26010;52.418;20.728;2022-07-23T17:31:36;51.77;;;48.67;;
40304;SDS011;26010;52.418;20.728;2022-07-23T17:41:37;21.40;;;19.90;;
40304;SDS011;26010;52.418;20.728;2022-07-23T17:51:39;31.40;;;29.27;;
40304;SDS011;26010;52.418;20.728;2022-07-23T18:01:40;60.78;;;57.28;;
40304;SDS011;26010;52.418;20.728;2022-07-23T18:11:42;57.17;;;53.53;;
40304;SDS011;26010;52.418;20.728;2022-07-23T18:31:43;78.57;;;73.90;;
40304;SDS011;26010;52.418;20.728;2022-07-23T18:41:44;90.97;;;85.87;;
40304;SDS011;26010;52.418;20.728;2022-07-23T18:51:45;58.53;;;55.07;;
40304;SDS011;26010;52.418;20.728;2022-07-23T19:01:46;56.23;;;52.83;;
40304;SDS011;26010;52.418;20.728;2022-07-23T19:11:47;62.25;;;58.10;;
40304;SDS011;26010;52.418;20.728;2022-07-23T19:21:48;94.80;;;89.33;;
40304;SDS011;26010;52.418;20.728;2022-07-23T19:31:49;53.27;;;50.00;;
40304;SDS011;26010;52.418;20.728;2022-07-23T19:41:49;64.47;;;60.43;;
40304;SDS011;26010;52.418;20.728;2022-07-23T19:51:50;98.13;;;91.67;;
40304;SDS011;26010;52.418;20.728;2022-07-23T20:01:51;99.33;;;92.73;;
40304;SDS011;26010;52.418;20.728;2022-07-23T20:11:52;100.07;;;94.13;;
40304;SDS011;26010;52.418;20.728;2022-07-23T20:21:52;111.07;;;103.07;;
40304;SDS011;26010;52.418;20.728;2022-07-23T20:31:53;97.60;;;91.33;;
40304;SDS011;26010;52.418;20.728;2022-07-23T20:41:54;49.77;;;46.53;;
40304;SDS011;26010;52.418;20.728;2022-07-23T20:51:55;84.03;;;75.77;;
40304;SDS011;26010;52.418;20.728;2022-07-23T21:01:56;51.03;;;47.50;;
40304;SDS011;26010;52.418;20.728;2022-07-23T21:11:56;48.83;;;44.90;;
40304;SDS011;26010;52.418;20.728;2022-07-23T21:21:57;46.43;;;42.77;;
40304;SDS011;26010;52.418;20.728;2022-07-23T21:31:58;42.93;;;39.40;;
40304;SDS011;26010;52.418;20.728;2022-07-23T21:41:59;45.97;;;42.20;;
40304;SDS011;26010;52.418;20.728;2022-07-23T21:52:00;46.03;;;42.03;;
40304;SDS011;26010;52.418;20.728;2022-07-23T22:02:00;48.60;;;45.00;;
40304;SDS011;26010;52.418;20.728;2022-07-23T22:12:01;51.63;;;48.10;;
40304;SDS011;26010;52.418;20.728;2022-07-23T22:22:02;117.80;;;107.60;;
40304;SDS011;26010;52.418;20.728;2022-07-23T22:32:03;63.40;;;58.67;;
40304;SDS011;26010;52.418;20.728;2022-07-23T22:42:04;75.97;;;70.63;;
40304;SDS011;26010;52.418;20.728;2022-07-23T22:52:05;60.33;;;55.80;;
40304;SDS011;26010;52.418;20.728;2022-07-23T23:02:05;50.67;;;46.37;;
40304;SDS011;26010;52.418;20.728;2022-07-23T23:12:06;50.67;;;46.23;;
40304;SDS011;26010;52.418;20.728;2022-07-23T23:22:07;52.33;;;47.60;;
40304;SDS011;26010;52.418;20.728;2022-07-23T23:32:08;68.93;;;63.90;;
40304;SDS011;26010;52.418;20.728;2022-07-23T23:42:24;62.60;;;57.53;;
40304;SDS011;26010;52.418;20.728;2022-07-23T23:52:25;68.33;;;63.33;;
